Time;durP1;ratioP1;P1;durP2;ratioP2;P2;SDS_P1;SDS_P2;PMS_P1;PMS_P2;Temp;Humidity;BMP_temperature;BMP_pressure;BME280_temperature;BME280_humidity;BME280_pressure;Samples;Min_cycle;Max_cycle;Signal;HPM_P1;HPM_P2
2021/06/27 00:00:55;;;;;;;10.55;5.55;;;;;;;;;;6189410;23;20196;-91
2021/06/27 00:04:02;;;;;;;15.38;6.93;;;;;;;;;;6189636;22;20254;-92
2021/06/27 00:07:10;;;;;;;7.18;5.00;;;;;;;;;;6188018;23;20530;-92
2021/06/27 00:10:19;;;;;;;7.57;4.82;;;;;;;;;;6187841;22;20184;-91
2021/06/27 00:14:03;;;;;;;10.65;5.47;;;;;;;;;;6187350;22;20215;-93
2021/06/27 00:17:09;;;;;;;13.60;5.45;;;;;;;;;;6187218;22;20151;-92
2021/06/27 00:20:18;;;;;;;11.00;6.53;;;;;;;;;;6187536;22;20152;-92
2021/06/27 00:23:33;;;;;;;9.40;4.93;;;;;;;;;;6185619;23;20169;-92
2021/06/27 00:26:42;;;;;;;8.68;6.20;;;;;;;;;;6186618;22;20220;-91
2021/06/27 00:29:48;;;;;;;18.95;10.38;;;;;;;;;;6184873;23;20204;-92
2021/06/27 00:32:53;;;;;;;11.60;5.90;;;;;;;;;;6204088;23;20215;-92
2021/06/27 00:36:00;;;;;;;20.13;10.30;;;;;;;;;;6187273;22;20196;-91
2021/06/27 00:39:09;;;;;;;15.50;8.27;;;;;;;;;;6188849;22;20191;-94
2021/06/27 00:42:17;;;;;;;10.80;6.20;;;;;;;;;;6188786;23;20167;-91
2021/06/27 00:45:24;;;;;;;14.02;5.80;;;;;;;;;;6187526;23;20180;-92
2021/06/27 00:48:31;;;;;;;13.43;6.10;;;;;;;;;;6186229;22;20243;-91
2021/06/27 00:51:41;;;;;;;9.77;6.10;;;;;;;;;;6187910;22;20234;-90
2021/06/27 00:54:51;;;;;;;8.02;5.70;;;;;;;;;;6187053;22;20203;-91
2021/06/27 00:57:57;;;;;;;10.05;5.95;;;;;;;;;;6186301;22;20183;-92
2021/06/27 01:01:05;;;;;;;9.48;6.05;;;;;;;;;;6186598;23;20200;-93
2021/06/27 01:04:13;;;;;;;10.85;6.30;;;;;;;;;;6187271;22;20155;-91
2021/06/27 01:07:19;;;;;;;10.98;6.15;;;;;;;;;;6186764;22;20287;-91
2021/06/27 01:10:28;;;;;;;10.27;6.07;;;;;;;;;;6187285;22;20147;-92
2021/06/27 01:13:38;;;;;;;13.85;6.10;;;;;;;;;;6187902;22;20156;-92
2021/06/27 01:16:46;;;;;;;12.43;5.78;;;;;;;;;;6185925;22;20159;-92
2021/06/27 01:19:54;;;;;;;10.30;6.00;;;;;;;;;;6184922;23;20191;-90
2021/06/27 01:23:04;;;;;;;9.23;5.60;;;;;;;;;;6186103;23;20610;-93
2021/06/27 01:26:11;;;;;;;14.82;6.28;;;;;;;;;;6183729;23;20239;-91
2021/06/27 01:29:20;;;;;;;14.23;6.35;;;;;;;;;;6183780;22;20168;-91
2021/06/27 01:32:26;;;;;;;8.98;5.43;;;;;;;;;;6177859;23;20167;-92
2021/06/27 01:35:31;;;;;;;12.63;6.30;;;;;;;;;;6178165;23;20151;-90
2021/06/27 01:38:38;;;;;;;10.98;6.30;;;;;;;;;;6179173;23;20259;-92
2021/06/27 01:41:49;;;;;;;9.27;5.97;;;;;;;;;;6178587;23;20222;-92
2021/06/27 01:44:55;;;;;;;10.77;5.85;;;;;;;;;;6178901;22;20160;-92
2021/06/27 01:48:01;;;;;;;14.02;6.30;;;;;;;;;;6179613;23;20180;-92
2021/06/27 01:51:07;;;;;;;13.75;6.72;;;;;;;;;;6177932;23;20211;-92
2021/06/27 01:54:14;;;;;;;10.45;6.18;;;;;;;;;;6179142;22;20172;-92
2021/06/27 01:57:20;;;;;;;11.50;6.25;;;;;;;;;;6179760;22;20187;-92
2021/06/27 02:00:26;;;;;;;10.48;6.32;;;;;;;;;;6178510;23;20171;-91
2021/06/27 02:03:31;;;;;;;11.02;6.63;;;;;;;;;;6151403;23;20168;-93
2021/06/27 02:06:36;;;;;;;15.23;7.05;;;;;;;;;;6150033;23;20169;-91
2021/06/27 02:09:44;;;;;;;15.73;6.78;;;;;;;;;;6149381;23;20231;-92
2021/06/27 02:12:49;;;;;;;12.27;6.35;;;;;;;;;;6149917;23;20152;-92
2021/06/27 02:15:57;;;;;;;11.90;6.63;;;;;;;;;;6149322;23;20169;-91
2021/06/27 02:19:02;;;;;;;12.02;6.25;;;;;;;;;;6148760;23;20205;-91
2021/06/27 02:22:08;;;;;;;13.68;6.88;;;;;;;;;;6151751;23;20168;-93
2021/06/27 02:25:15;;;;;;;8.90;6.43;;;;;;;;;;6152193;23;20208;-91
2021/06/27 02:28:20;;;;;;;18.33;6.32;;;;;;;;;;6150195;23;20232;-92
2021/06/27 02:31:25;;;;;;;13.38;6.78;;;;;;;;;;6153680;23;20229;-91
2021/06/27 02:34:30;;;;;;;9.25;6.60;;;;;;;;;;6152896;23;20172;-92
2021/06/27 02:37:35;;;;;;;12.25;7.38;;;;;;;;;;6152115;23;20244;-92
2021/06/27 02:40:42;;;;;;;12.43;6.47;;;;;;;;;;6151790;23;20188;-92
2021/06/27 02:43:48;;;;;;;13.68;6.38;;;;;;;;;;6150632;23;20168;-91
2021/06/27 02:46:53;;;;;;;10.32;6.65;;;;;;;;;;6151862;23;20176;-92
2021/06/27 02:49:58;;;;;;;15.77;7.00;;;;;;;;;;6152692;23;20214;-91
2021/06/27 02:53:03;;;;;;;11.05;6.50;;;;;;;;;;6151989;23;20228;-92
2021/06/27 02:56:09;;;;;;;12.68;6.93;;;;;;;;;;6151403;23;20184;-92
2021/06/27 02:59:15;;;;;;;10.50;6.55;;;;;;;;;;6151750;23;20173;-92
2021/06/27 03:02:20;;;;;;;14.88;7.15;;;;;;;;;;6172611;23;20187;-92
2021/06/27 03:05:25;;;;;;;12.30;7.10;;;;;;;;;;6181261;22;20487;-92
2021/06/27 03:08:30;;;;;;;9.93;6.55;;;;;;;;;;6181876;23;20666;-92
2021/06/27 03:11:37;;;;;;;10.90;6.63;;;;;;;;;;6182091;23;20217;-91
2021/06/27 03:14:43;;;;;;;15.25;7.07;;;;;;;;;;6182258;23;20168;-93
2021/06/27 03:17:48;;;;;;;14.90;6.80;;;;;;;;;;6181436;23;20299;-92
2021/06/27 03:20:53;;;;;;;10.45;6.47;;;;;;;;;;6180336;23;20203;-91
2021/06/27 03:23:58;;;;;;;9.63;6.25;;;;;;;;;;6181140;23;20172;-92
2021/06/27 03:27:06;;;;;;;11.68;6.30;;;;;;;;;;6181468;23;20171;-92
2021/06/27 03:30:11;;;;;;;9.82;6.38;;;;;;;;;;6179993;23;20175;-91
2021/06/27 03:33:17;;;;;;;12.00;5.97;;;;;;;;;;6179307;23;20172;-91
2021/06/27 03:36:22;;;;;;;10.32;6.40;;;;;;;;;;6180380;22;20180;-91
2021/06/27 03:39:27;;;;;;;10.85;7.00;;;;;;;;;;6180453;23;20168;-92
2021/06/27 03:42:34;;;;;;;15.27;6.50;;;;;;;;;;6180726;23;20211;-90
2021/06/27 03:45:39;;;;;;;14.55;6.97;;;;;;;;;;6180001;23;20167;-91
2021/06/27 03:48:44;;;;;;;12.45;6.50;;;;;;;;;;6179580;23;20171;-91
2021/06/27 03:51:49;;;;;;;10.35;7.00;;;;;;;;;;6180215;22;20156;-92
2021/06/27 03:54:54;;;;;;;11.82;6.80;;;;;;;;;;6181060;23;20626;-92
2021/06/27 03:58:00;;;;;;;12.52;7.32;;;;;;;;;;6180549;23;20669;-92
2021/06/27 04:01:41;;;;;;;15.18;6.60;;;;;;;;;;6180455;23;20167;-91
2021/06/27 04:04:46;;;;;;;10.27;7.32;;;;;;;;;;6180599;22;20225;-91
2021/06/27 04:07:51;;;;;;;14.38;6.95;;;;;;;;;;6180420;23;20192;-91
2021/06/27 04:10:58;;;;;;;13.55;7.88;;;;;;;;;;6180245;23;20223;-92
2021/06/27 04:14:05;;;;;;;14.80;7.35;;;;;;;;;;6179370;22;20266;-91
2021/06/27 04:17:12;;;;;;;12.55;7.18;;;;;;;;;;6179440;23;20254;-89
2021/06/27 04:20:17;;;;;;;10.23;7.30;;;;;;;;;;6180332;22;20172;-91
2021/06/27 04:23:22;;;;;;;12.18;6.43;;;;;;;;;;6181079;23;20172;-92
2021/06/27 04:26:26;;;;;;;11.65;6.90;;;;;;;;;;6181653;22;20239;-91
2021/06/27 04:29:33;;;;;;;14.73;7.25;;;;;;;;;;6180273;23;20263;-91
2021/06/27 04:32:39;;;;;;;11.13;6.70;;;;;;;;;;6181624;22;20151;-92
2021/06/27 04:36:12;;;;;;;12.65;6.70;;;;;;;;;;6180199;23;20253;-92
2021/06/27 04:39:17;;;;;;;10.05;6.53;;;;;;;;;;6181524;22;20172;-91
2021/06/27 04:42:22;;;;;;;12.82;7.32;;;;;;;;;;6182007;23;20466;-92
2021/06/27 04:45:28;;;;;;;12.95;7.18;;;;;;;;;;6180504;23;20172;-91
2021/06/27 04:48:35;;;;;;;13.82;7.20;;;;;;;;;;6180721;22;20183;-92
2021/06/27 04:51:41;;;;;;;11.60;7.25;;;;;;;;;;6180425;22;20168;-92
2021/06/27 04:54:46;;;;;;;8.82;6.60;;;;;;;;;;6181467;22;20180;-92
2021/06/27 04:57:51;;;;;;;9.60;6.65;;;;;;;;;;6181413;23;20171;-93
2021/06/27 05:00:58;;;;;;;11.43;7.07;;;;;;;;;;6181249;23;20558;-92
2021/06/27 05:04:03;;;;;;;11.95;6.57;;;;;;;;;;6179009;23;20187;-92
2021/06/27 05:07:09;;;;;;;11.52;6.38;;;;;;;;;;6181266;22;20176;-92
2021/06/27 05:10:14;;;;;;;10.90;6.88;;;;;;;;;;6181577;22;20179;-90
2021/06/27 05:13:18;;;;;;;10.40;6.95;;;;;;;;;;6181418;22;20211;-92
2021/06/27 05:16:25;;;;;;;10.60;6.50;;;;;;;;;;6180570;23;20171;-92
2021/06/27 05:19:31;;;;;;;11.32;7.22;;;;;;;;;;6181564;23;20167;-91
2021/06/27 05:22:36;;;;;;;10.18;7.05;;;;;;;;;;6180784;23;20155;-92
2021/06/27 05:25:41;;;;;;;10.90;6.80;;;;;;;;;;6183209;23;20151;-91
2021/06/27 05:28:48;;;;;;;9.60;7.13;;;;;;;;;;6181909;22;20214;-92
2021/06/27 05:31:55;;;;;;;13.02;7.32;;;;;;;;;;6181511;23;20168;-93
2021/06/27 05:35:00;;;;;;;12.85;7.18;;;;;;;;;;6180989;23;20658;-91
2021/06/27 05:38:05;;;;;;;10.82;6.70;;;;;;;;;;6180828;23;20163;-93
2021/06/27 05:41:10;;;;;;;11.07;6.88;;;;;;;;;;6179299;23;20168;-92
2021/06/27 05:44:15;;;;;;;9.75;6.97;;;;;;;;;;6178563;23;20168;-92
2021/06/27 05:47:22;;;;;;;11.07;7.00;;;;;;;;;;6180223;23;20243;-92
2021/06/27 05:50:27;;;;;;;11.40;6.65;;;;;;;;;;6180603;23;20175;-92
2021/06/27 05:53:33;;;;;;;12.60;6.70;;;;;;;;;;6178271;23;20167;-92
2021/06/27 05:56:38;;;;;;;11.65;6.90;;;;;;;;;;6180218;23;20225;-92
2021/06/27 05:59:43;;;;;;;11.40;6.53;;;;;;;;;;6179118;23;20179;-91
2021/06/27 06:02:49;;;;;;;10.50;6.47;;;;;;;;;;6182726;22;20199;-93
2021/06/27 06:05:54;;;;;;;9.45;6.30;;;;;;;;;;6180548;23;20172;-93
2021/06/27 06:08:59;;;;;;;10.43;6.45;;;;;;;;;;6179413;23;20187;-93
2021/06/27 06:12:04;;;;;;;11.45;6.10;;;;;;;;;;6179757;22;20208;-93
2021/06/27 06:15:10;;;;;;;9.30;5.90;;;;;;;;;;6180680;23;20214;-92
2021/06/27 06:18:17;;;;;;;9.38;6.30;;;;;;;;;;6181821;22;20276;-92
2021/06/27 06:21:22;;;;;;;8.23;5.60;;;;;;;;;;6180660;22;20708;-92
2021/06/27 06:24:27;;;;;;;10.48;6.07;;;;;;;;;;6179888;22;20164;-92
2021/06/27 06:27:32;;;;;;;7.85;5.85;;;;;;;;;;6205261;22;20292;-93
2021/06/27 06:30:39;;;;;;;11.25;5.93;;;;;;;;;;6185803;22;20171;-92
2021/06/27 06:33:47;;;;;;;7.57;5.47;;;;;;;;;;6184921;22;20167;-92
2021/06/27 06:36:52;;;;;;;8.77;4.95;;;;;;;;;;6185730;23;20172;-91
2021/06/27 06:39:57;;;;;;;8.43;5.65;;;;;;;;;;6184595;23;20618;-92
2021/06/27 06:43:03;;;;;;;6.93;4.70;;;;;;;;;;6185994;23;20192;-92
2021/06/27 06:46:08;;;;;;;7.35;5.03;;;;;;;;;;6185563;22;20579;-93
2021/06/27 06:49:22;;;;;;;8.15;4.80;;;;;;;;;;6186540;22;20674;-91
2021/06/27 06:52:28;;;;;;;7.40;4.75;;;;;;;;;;6183125;23;20697;-93
2021/06/27 06:55:33;;;;;;;11.65;5.20;;;;;;;;;;6184034;23;20272;-93
2021/06/27 06:58:39;;;;;;;8.35;4.85;;;;;;;;;;6185760;22;20171;-93
2021/06/27 07:01:45;;;;;;;5.82;4.50;;;;;;;;;;6183145;23;20173;-93
2021/06/27 07:04:52;;;;;;;6.75;4.50;;;;;;;;;;6183636;23;20616;-92
2021/06/27 07:07:57;;;;;;;6.32;4.70;;;;;;;;;;6182718;23;20172;-93
2021/06/27 07:11:03;;;;;;;7.22;5.00;;;;;;;;;;6182830;23;20591;-93
2021/06/27 07:14:08;;;;;;;9.45;4.65;;;;;;;;;;6183504;23;20172;-93
2021/06/27 07:17:13;;;;;;;6.88;4.50;;;;;;;;;;6182580;23;20171;-92
2021/06/27 07:20:19;;;;;;;5.95;4.10;;;;;;;;;;6182767;23;20155;-92
2021/06/27 07:23:25;;;;;;;4.47;3.70;;;;;;;;;;6181961;23;20167;-92
2021/06/27 07:26:30;;;;;;;9.02;4.72;;;;;;;;;;6183880;23;20156;-90
2021/06/27 07:29:39;;;;;;;5.88;4.32;;;;;;;;;;6182980;22;20216;-94
2021/06/27 07:32:46;;;;;;;6.28;3.60;;;;;;;;;;6183856;23;20167;-92
2021/06/27 07:35:53;;;;;;;5.07;3.63;;;;;;;;;;6182308;23;20164;-93
2021/06/27 07:38:58;;;;;;;7.55;3.95;;;;;;;;;;6185862;22;20187;-94
2021/06/27 07:42:03;;;;;;;4.25;3.60;;;;;;;;;;6183353;23;20168;-94
2021/06/27 07:45:09;;;;;;;3.60;2.92;;;;;;;;;;6182055;22;20188;-93
2021/06/27 07:48:15;;;;;;;3.88;3.28;;;;;;;;;;6185953;23;20167;-93
2021/06/27 07:51:21;;;;;;;3.58;3.15;;;;;;;;;;6184949;22;20163;-95
2021/06/27 07:54:26;;;;;;;6.88;3.25;;;;;;;;;;6184643;23;20614;-94
2021/06/27 07:57:31;;;;;;;3.15;2.85;;;;;;;;;;6184956;23;20187;-95
2021/06/27 08:00:37;;;;;;;4.63;3.65;;;;;;;;;;6183712;23;20567;-93
2021/06/27 08:03:42;;;;;;;4.57;3.20;;;;;;;;;;6183611;23;20172;-93
2021/06/27 08:06:50;;;;;;;5.22;3.67;;;;;;;;;;6182054;22;20175;-94
2021/06/27 08:09:56;;;;;;;4.18;3.28;;;;;;;;;;6183302;22;20232;-93
2021/06/27 08:13:02;;;;;;;5.78;3.42;;;;;;;;;;6184924;23;20167;-93
2021/06/27 08:16:07;;;;;;;5.07;3.63;;;;;;;;;;6182537;23;20167;-94
2021/06/27 08:19:13;;;;;;;3.97;3.33;;;;;;;;;;6181904;23;20155;-93
2021/06/27 08:22:19;;;;;;;5.03;3.90;;;;;;;;;;6182580;23;20168;-93
2021/06/27 08:25:25;;;;;;;11.18;5.28;;;;;;;;;;6184912;22;20152;-94
2021/06/27 08:28:32;;;;;;;5.63;3.50;;;;;;;;;;6184191;22;20731;-93
2021/06/27 08:31:37;;;;;;;5.47;2.90;;;;;;;;;;6183454;23;20168;-93
2021/06/27 08:34:43;;;;;;;6.00;3.20;;;;;;;;;;6184370;23;20168;-91
2021/06/27 08:37:50;;;;;;;5.25;4.18;;;;;;;;;;6186015;22;20168;-94
2021/06/27 08:40:57;;;;;;;3.50;3.10;;;;;;;;;;6186310;22;20155;-94
2021/06/27 10:00:34;;;;;;;3.60;2.10;;;;;;;;;;6149728;22;20215;-94
2021/06/27 10:03:51;;;;;;;2.65;2.03;;;;;;;;;;6183101;23;20611;-94
2021/06/27 10:06:58;;;;;;;3.92;2.40;;;;;;;;;;6182747;23;20152;-92
2021/06/27 10:10:18;;;;;;;2.42;2.00;;;;;;;;;;6186041;22;20199;-93
2021/06/27 10:13:26;;;;;;;2.47;2.10;;;;;;;;;;6186035;23;20179;-93
2021/06/27 10:16:33;;;;;;;2.63;2.40;;;;;;;;;;6187885;23;20221;-94
2021/06/27 10:19:42;;;;;;;3.10;2.10;;;;;;;;;;6186935;22;20168;-93
2021/06/27 10:22:48;;;;;;;2.63;2.08;;;;;;;;;;6185826;23;20163;-93
2021/06/27 10:25:54;;;;;;;3.28;2.05;;;;;;;;;;6185028;22;20411;-93
2021/06/27 10:29:00;;;;;;;2.85;2.10;;;;;;;;;;6185014;23;20314;-94
2021/06/27 10:32:05;;;;;;;2.42;1.98;;;;;;;;;;6186063;22;20236;-95
2021/06/27 10:35:13;;;;;;;3.90;2.20;;;;;;;;;;6183747;23;20191;-93
2021/06/27 10:38:20;;;;;;;2.45;2.10;;;;;;;;;;6186601;22;20183;-93
2021/06/27 10:41:45;;;;;;;2.20;2.00;;;;;;;;;;6185478;22;20167;-93
2021/06/27 10:45:10;;;;;;;2.70;2.15;;;;;;;;;;6187483;23;20166;-93
2021/06/27 10:48:30;;;;;;;2.97;2.22;;;;;;;;;;6185359;23;20166;-94
2021/06/27 10:52:01;;;;;;;2.78;2.30;;;;;;;;;;6185894;22;20194;-94
2021/06/27 10:55:31;;;;;;;4.00;2.10;;;;;;;;;;6185318;23;20176;-93
2021/06/27 10:58:37;;;;;;;2.28;1.95;;;;;;;;;;6185042;22;20191;-94
2021/06/27 11:02:12;;;;;;;2.13;1.92;;;;;;;;;;6186118;23;20187;-94
2021/06/27 11:05:43;;;;;;;2.53;1.80;;;;;;;;;;6186456;23;20219;-94
2021/06/27 11:08:55;;;;;;;2.33;2.03;;;;;;;;;;6187685;22;20174;-94
2021/06/27 11:12:03;;;;;;;2.50;1.80;;;;;;;;;;6185508;22;20183;-96
2021/06/27 11:15:15;;;;;;;2.55;1.60;;;;;;;;;;6187532;23;20250;-95
2021/06/27 11:18:29;;;;;;;2.35;2.05;;;;;;;;;;6187744;22;20163;-95
2021/06/27 11:21:37;;;;;;;2.30;1.90;;;;;;;;;;6186719;23;20175;-95
2021/06/27 11:24:52;;;;;;;2.42;1.60;;;;;;;;;;6186228;23;20209;-95
2021/06/27 11:27:58;;;;;;;3.58;2.00;;;;;;;;;;6186935;23;20176;-94
2021/06/27 11:31:18;;;;;;;1.50;1.40;;;;;;;;;;6186782;22;20199;-94
2021/06/27 11:34:24;;;;;;;2.20;1.95;;;;;;;;;;6186809;23;20615;-95
2021/06/27 11:37:46;;;;;;;1.73;1.60;;;;;;;;;;6186918;22;20220;-94
2021/06/27 11:40:55;;;;;;;2.22;1.80;;;;;;;;;;6186863;22;20171;-94
2021/06/27 11:44:02;;;;;;;2.28;1.90;;;;;;;;;;6186154;22;20659;-96
2021/06/27 11:47:23;;;;;;;2.50;1.80;;;;;;;;;;6185582;22;20168;-94
2021/06/27 11:50:29;;;;;;;1.88;1.67;;;;;;;;;;6187147;23;20278;-94
2021/06/27 11:53:40;;;;;;;2.00;1.80;;;;;;;;;;6186170;23;20171;-96
2021/06/27 11:56:58;;;;;;;2.25;1.40;;;;;;;;;;6186611;23;20215;-94
2021/06/27 12:00:06;;;;;;;2.03;1.50;;;;;;;;;;6187809;23;20220;-94
2021/06/27 12:03:14;;;;;;;1.60;1.50;;;;;;;;;;6204524;23;20171;-95
2021/06/27 12:06:19;;;;;;;4.03;1.60;;;;;;;;;;6187254;23;20208;-96
2021/06/27 12:09:36;;;;;;;1.83;1.58;;;;;;;;;;6187045;22;20232;-94
2021/06/27 12:12:44;;;;;;;2.17;1.55;;;;;;;;;;6187190;22;20187;-94
2021/06/27 12:15:49;;;;;;;1.63;1.52;;;;;;;;;;6186901;22;20527;-94
2021/06/27 12:18:58;;;;;;;2.38;1.42;;;;;;;;;;6186569;23;20167;-95
2021/06/27 12:22:04;;;;;;;3.15;1.60;;;;;;;;;;6186472;23;20167;-96
2021/06/27 12:25:10;;;;;;;1.67;1.50;;;;;;;;;;6185962;23;20237;-94
2021/06/27 12:28:19;;;;;;;2.22;1.40;;;;;;;;;;6186837;23;20183;-96
2021/06/27 12:31:26;;;;;;;1.58;1.45;;;;;;;;;;6185757;23;20242;-94
2021/06/27 12:34:32;;;;;;;2.65;1.40;;;;;;;;;;6185603;23;20167;-95
2021/06/27 12:37:37;;;;;;;2.55;1.40;;;;;;;;;;6185998;23;20649;-95
2021/06/27 12:40:45;;;;;;;1.70;1.50;;;;;;;;;;6185037;22;20175;-95
2021/06/27 12:43:55;;;;;;;1.75;1.40;;;;;;;;;;6185102;23;20171;-94
2021/06/27 12:47:01;;;;;;;1.80;1.33;;;;;;;;;;6183731;23;20183;-95
2021/06/27 12:50:07;;;;;;;1.70;1.40;;;;;;;;;;6182937;23;20507;-95
2021/06/27 12:53:12;;;;;;;1.70;1.20;;;;;;;;;;6182865;23;20200;-95
2021/06/27 12:56:18;;;;;;;1.75;1.50;;;;;;;;;;6185015;23;20175;-95
2021/06/27 12:59:25;;;;;;;1.73;1.42;;;;;;;;;;6187705;23;20167;-95
2021/06/27 13:02:35;;;;;;;2.08;1.40;;;;;;;;;;6155172;23;20231;-94
2021/06/27 13:05:41;;;;;;;1.88;1.45;;;;;;;;;;6154464;23;20203;-94
2021/06/27 13:08:46;;;;;;;2.53;1.40;;;;;;;;;;6155651;23;20199;-94
2021/06/27 13:12:08;;;;;;;2.95;1.40;;;;;;;;;;6157397;23;20227;-94
2021/06/27 13:15:17;;;;;;;1.90;1.50;;;;;;;;;;6155567;23;20168;-95
2021/06/27 13:18:24;;;;;;;1.95;1.60;;;;;;;;;;6155817;23;20168;-93
2021/06/27 13:21:30;;;;;;;1.40;1.25;;;;;;;;;;6155819;23;20175;-94
2021/06/27 13:24:51;;;;;;;1.60;1.40;;;;;;;;;;6156512;23;20221;-93
2021/06/27 13:28:00;;;;;;;2.75;1.65;;;;;;;;;;6156755;23;20489;-94
2021/06/27 13:31:08;;;;;;;1.50;1.40;;;;;;;;;;6156754;23;20203;-95
2021/06/27 13:34:14;;;;;;;1.55;1.30;;;;;;;;;;6157521;23;20167;-95
2021/06/27 13:37:20;;;;;;;1.60;1.15;;;;;;;;;;6155955;23;20172;-94
2021/06/27 13:40:25;;;;;;;3.30;1.35;;;;;;;;;;6157660;23;20175;-94
2021/06/27 13:43:30;;;;;;;2.13;1.38;;;;;;;;;;6157841;23;20167;-92
2021/06/27 13:46:41;;;;;;;1.40;1.30;;;;;;;;;;6156599;23;20171;-93
2021/06/27 14:01:57;;;;;;;1.50;1.20;;;;;;;;;;6186957;23;20658;-94
2021/06/27 14:05:02;;;;;;;3.38;1.27;;;;;;;;;;6186884;23;20168;-93
2021/06/27 14:08:07;;;;;;;2.15;1.95;;;;;;;;;;6186313;23;20171;-94
2021/06/27 14:11:13;;;;;;;1.88;1.25;;;;;;;;;;6186772;23;20178;-94
2021/06/27 14:14:21;;;;;;;2.58;1.10;;;;;;;;;;6186178;23;20170;-93
2021/06/27 14:17:31;;;;;;;2.25;1.30;;;;;;;;;;6186959;23;20187;-95
2021/06/27 14:20:36;;;;;;;3.17;1.40;;;;;;;;;;6205658;23;20155;-93
2021/06/27 14:44:17;;;;;;;1.50;1.40;;;;;;;;;;6160682;22;20757;-96
2021/06/27 14:47:24;;;;;;;2.35;1.70;;;;;;;;;;6187773;23;20166;-95
2021/06/27 14:50:30;;;;;;;2.15;1.25;;;;;;;;;;6188391;22;20238;-94
2021/06/27 14:53:36;;;;;;;2.42;1.55;;;;;;;;;;6187242;23;20192;-94
2021/06/27 14:56:41;;;;;;;3.50;1.40;;;;;;;;;;6189530;23;20171;-95
2021/06/27 14:59:49;;;;;;;2.47;1.40;;;;;;;;;;6187541;23;20669;-95
2021/06/27 15:02:54;;;;;;;2.03;1.55;;;;;;;;;;6184795;23;20170;-93
2021/06/27 15:06:00;;;;;;;3.33;1.70;;;;;;;;;;6187154;22;20146;-93
2021/06/27 15:09:05;;;;;;;2.25;1.52;;;;;;;;;;6172036;23;20195;-94
2021/06/27 15:12:14;;;;;;;4.38;2.00;;;;;;;;;;6187339;23;20194;-93
2021/06/27 15:15:22;;;;;;;2.47;1.60;;;;;;;;;;6187425;23;20182;-94
2021/06/27 15:18:27;;;;;;;1.85;1.60;;;;;;;;;;6187755;22;20207;-94
2021/06/27 15:21:34;;;;;;;1.52;1.42;;;;;;;;;;6187888;22;20151;-93
2021/06/27 15:24:40;;;;;;;2.88;1.73;;;;;;;;;;6188429;22;20207;-95
2021/06/27 15:27:46;;;;;;;1.52;1.35;;;;;;;;;;6186347;22;20235;-93
2021/06/27 15:30:52;;;;;;;1.85;1.30;;;;;;;;;;6188322;23;20274;-91
2021/06/27 15:34:00;;;;;;;1.80;1.58;;;;;;;;;;6188740;22;20168;-93
2021/06/27 15:37:08;;;;;;;2.13;1.80;;;;;;;;;;6186172;22;20171;-93
2021/06/27 15:40:13;;;;;;;3.45;1.60;;;;;;;;;;6189458;22;20195;-95
2021/06/27 15:43:19;;;;;;;2.72;1.45;;;;;;;;;;6189478;22;20172;-94
2021/06/27 15:46:30;;;;;;;2.55;1.30;;;;;;;;;;6187579;23;20239;-93
2021/06/27 15:49:35;;;;;;;1.52;1.42;;;;;;;;;;6186974;23;20232;-94
2021/06/27 15:52:41;;;;;;;2.42;1.77;;;;;;;;;;6185432;22;20176;-94
2021/06/27 15:55:46;;;;;;;2.20;1.40;;;;;;;;;;6186651;23;20179;-93
2021/06/27 15:58:54;;;;;;;5.22;1.50;;;;;;;;;;6186642;23;20168;-94
2021/06/27 16:02:07;;;;;;;2.60;1.67;;;;;;;;;;6186427;22;20232;-94
2021/06/27 16:05:13;;;;;;;2.55;1.42;;;;;;;;;;6185786;22;20180;-93
2021/06/27 16:08:19;;;;;;;2.10;1.52;;;;;;;;;;6185695;22;20224;-93
2021/06/27 16:11:25;;;;;;;1.95;1.45;;;;;;;;;;6185407;23;20199;-94
2021/06/27 16:14:31;;;;;;;1.95;1.30;;;;;;;;;;6188154;22;20171;-95
2021/06/27 16:17:39;;;;;;;3.00;1.63;;;;;;;;;;6186775;23;20167;-95
2021/06/27 16:20:45;;;;;;;3.08;1.40;;;;;;;;;;6186388;23;20176;-94
2021/06/27 16:23:51;;;;;;;1.40;1.30;;;;;;;;;;6186376;23;20610;-94
2021/06/27 16:26:59;;;;;;;14.80;1.60;;;;;;;;;;6186945;22;20247;-94
2021/06/27 16:30:05;;;;;;;2.70;1.52;;;;;;;;;;6187627;23;20172;-94
2021/06/27 16:33:12;;;;;;;3.92;1.60;;;;;;;;;;6187057;23;20176;-94
2021/06/27 16:36:18;;;;;;;3.55;1.80;;;;;;;;;;6186744;22;20667;-96
2021/06/27 16:39:23;;;;;;;2.03;1.40;;;;;;;;;;6187022;22;20221;-93
2021/06/27 16:42:29;;;;;;;3.80;2.50;;;;;;;;;;6184942;23;20183;-94
2021/06/27 16:45:34;;;;;;;3.08;2.17;;;;;;;;;;6185600;23;20174;-95
2021/06/27 16:48:43;;;;;;;4.15;2.10;;;;;;;;;;6187352;22;20231;-95
2021/06/27 16:51:48;;;;;;;4.70;2.40;;;;;;;;;;6187956;23;20219;-95
2021/06/27 16:54:55;;;;;;;3.00;2.22;;;;;;;;;;6186587;22;20217;-93
2021/06/27 16:58:00;;;;;;;3.40;1.92;;;;;;;;;;6187732;22;20204;-93
2021/06/27 17:18:47;;;;;;;3.40;2.10;;;;;;;;;;6188889;22;20250;-93
2021/06/27 17:21:52;;;;;;;3.60;3.05;;;;;;;;;;6186304;22;20156;-93
2021/06/27 17:24:58;;;;;;;5.93;3.03;;;;;;;;;;6188565;22;20167;-93
2021/06/27 17:28:06;;;;;;;3.63;2.90;;;;;;;;;;6186318;23;20207;-93
2021/06/27 17:31:14;;;;;;;3.70;2.72;;;;;;;;;;6185147;23;20231;-94
2021/06/27 17:34:22;;;;;;;5.43;2.90;;;;;;;;;;6187940;22;20196;-93
2021/06/27 22:02:14;;;;;;;7.82;4.72;;;;;;;;;;6191831;22;20216;-90
2021/06/27 22:05:20;;;;;;;7.57;4.25;;;;;;;;;;6184993;23;20164;-92
2021/06/27 22:08:26;;;;;;;9.07;4.70;;;;;;;;;;6186969;22;20176;-92
2021/06/27 22:11:31;;;;;;;9.48;4.60;;;;;;;;;;6186013;23;20199;-91
2021/06/27 22:14:36;;;;;;;10.43;4.43;;;;;;;;;;6185720;23;20234;-90
2021/06/27 22:17:45;;;;;;;6.38;4.35;;;;;;;;;;6185470;23;20199;-92
2021/06/27 22:20:53;;;;;;;7.32;4.47;;;;;;;;;;6185537;23;20224;-91
2021/06/27 22:23:58;;;;;;;7.10;4.75;;;;;;;;;;6185335;23;20172;-91
2021/06/27 22:27:03;;;;;;;6.05;4.68;;;;;;;;;;6185917;23;20296;-89
2021/06/27 22:30:09;;;;;;;11.32;4.32;;;;;;;;;;6186053;23;20168;-91
2021/06/27 22:33:17;;;;;;;6.95;4.70;;;;;;;;;;6186263;23;20172;-92
2021/06/27 22:36:23;;;;;;;10.85;4.63;;;;;;;;;;6185491;23;20179;-92
2021/06/27 22:39:29;;;;;;;6.15;4.05;;;;;;;;;;6189276;22;20530;-92
2021/06/27 22:42:34;;;;;;;9.48;4.82;;;;;;;;;;6188511;22;20181;-92
2021/06/27 22:45:39;;;;;;;9.20;4.90;;;;;;;;;;6188625;23;20623;-92
2021/06/27 22:48:46;;;;;;;6.47;4.35;;;;;;;;;;6188080;23;20168;-91
2021/06/27 22:51:52;;;;;;;7.68;4.63;;;;;;;;;;6187894;23;20192;-91
2021/06/27 22:54:58;;;;;;;7.60;4.32;;;;;;;;;;6188175;23;20168;-93
2021/06/27 22:58:05;;;;;;;7.72;4.28;;;;;;;;;;6188710;23;20188;-92
2021/06/27 23:01:10;;;;;;;7.55;4.75;;;;;;;;;;6188932;23;20219;-91
2021/06/27 23:04:17;;;;;;;8.60;4.95;;;;;;;;;;6189033;23;20164;-90
2021/06/27 23:07:23;;;;;;;8.90;5.10;;;;;;;;;;6190559;23;20171;-93
2021/06/27 23:10:29;;;;;;;6.15;4.35;;;;;;;;;;6187751;23;20168;-92
2021/06/27 23:13:36;;;;;;;9.65;4.47;;;;;;;;;;6188870;23;20175;-92
2021/06/27 23:16:42;;;;;;;8.90;4.95;;;;;;;;;;6188763;22;20172;-92
2021/06/27 23:19:51;;;;;;;9.05;4.93;;;;;;;;;;6189189;22;20542;-92
2021/06/27 23:22:56;;;;;;;8.40;5.50;;;;;;;;;;6187346;23;20168;-93
2021/06/27 23:26:05;;;;;;;9.27;5.05;;;;;;;;;;6186018;23;20164;-90
2021/06/27 23:29:19;;;;;;;9.80;5.18;;;;;;;;;;6188964;22;20192;-92
2021/06/27 23:32:27;;;;;;;7.18;5.35;;;;;;;;;;6188295;22;20199;-90
2021/06/27 23:35:44;;;;;;;13.18;7.68;;;;;;;;;;6188263;23;20171;-93
2021/06/27 23:38:50;;;;;;;10.13;5.53;;;;;;;;;;6188986;23;20168;-89
2021/06/27 23:41:58;;;;;;;8.38;5.53;;;;;;;;;;6189460;23;20236;-92
2021/06/27 23:45:05;;;;;;;7.65;5.32;;;;;;;;;;6190283;22;20152;-91
2021/06/27 23:48:10;;;;;;;8.80;5.40;;;;;;;;;;6189255;23;20167;-91
2021/06/27 23:54:37;;;;;;;11.85;5.63;;;;;;;;;;6188493;23;20188;-92
2021/06/27 23:57:42;;;;;;;9.13;5.47;;;;;;;;;;6188089;23;20184;-90
